Time;durP1;ratioP1;P1;durP2;ratioP2;P2;SDS_P1;SDS_P2;PMS_P1;PMS_P2;Temp;Humidity;BMP_temperature;BMP_pressure;BME280_temperature;BME280_humidity;BME280_pressure;Samples;Min_cycle;Max_cycle;Signal;HPM_P1;HPM_P2
2022/03/31 00:00:47;;;;;;;28.63;22.25;;;9.90;79.50;;;8.20;88.36;94209.28;4979558;28;20056;-66
2022/03/31 00:03:15;;;;;;;25.58;20.02;;;9.80;79.50;;;8.17;87.50;94212.34;4990088;28;20034;-65
2022/03/31 00:05:40;;;;;;;25.50;21.50;;;9.70;79.70;;;8.12;87.80;94207.75;5012977;28;20564;-66
2022/03/31 00:08:13;;;;;;;26.45;19.65;;;9.70;79.80;;;8.10;88.66;94214.22;4997508;28;20097;-67
2022/03/31 00:10:59;;;;;;;26.27;21.23;;;9.70;80.00;;;8.05;89.29;94217.50;5003907;28;20027;-66
2022/03/31 00:13:28;;;;;;;26.65;20.52;;;9.70;79.90;;;8.03;88.63;94216.91;4991097;28;20030;-66
2022/03/31 00:15:56;;;;;;;29.45;21.67;;;9.70;79.90;;;8.00;88.23;94219.97;5009618;28;20044;-66
2022/03/31 00:18:22;;;;;;;25.45;21.15;;;9.70;79.90;;;7.97;88.41;94215.97;4959076;28;20439;-67
2022/03/31 00:20:48;;;;;;;27.40;20.73;;;9.60;79.90;;;7.96;88.19;94214.38;4992868;28;20038;-68
2022/03/31 00:23:13;;;;;;;25.45;21.80;;;9.60;79.90;;;7.91;88.17;94211.59;4991105;28;20528;-66
2022/03/31 00:25:39;;;;;;;27.42;20.40;;;9.50;79.90;;;7.88;88.25;94209.41;4994245;28;20035;-66
2022/03/31 00:28:05;;;;;;;25.75;20.92;;;9.50;79.90;;;7.87;88.40;94214.88;4975928;28;20042;-66
2022/03/31 00:30:31;;;;;;;26.52;20.30;;;9.50;79.90;;;7.85;87.78;94201.22;4990440;28;20459;-66
2022/03/31 00:32:57;;;;;;;28.05;20.23;;;9.50;79.80;;;7.81;87.79;94202.66;4997408;28;20052;-66
2022/03/31 00:35:23;;;;;;;26.67;21.70;;;9.40;79.90;;;7.81;88.55;94205.28;4995368;28;20116;-67
2022/03/31 00:37:49;;;;;;;26.73;21.20;;;9.40;79.90;;;7.77;87.84;94199.69;5012620;28;20161;-66
2022/03/31 00:40:18;;;;;;;31.05;21.45;;;9.40;80.00;;;7.75;88.22;94196.50;4995621;28;20688;-67
2022/03/31 00:42:47;;;;;;;26.48;21.38;;;9.40;79.90;;;7.73;88.59;94200.34;5011611;28;20081;-66
2022/03/31 00:45:18;;;;;;;25.95;21.05;;;9.40;80.00;;;7.73;88.25;94197.75;4990238;28;20151;-66
2022/03/31 00:47:43;;;;;;;24.35;19.13;;;9.40;79.80;;;7.72;88.24;94186.47;4997269;28;20481;-67
2022/03/31 00:50:11;;;;;;;25.73;21.17;;;9.40;79.80;;;7.70;88.21;94180.66;4993632;28;20034;-67
2022/03/31 00:52:37;;;;;;;25.42;20.23;;;9.40;79.90;;;7.71;88.36;94184.88;5012334;28;20034;-66
2022/03/31 00:55:04;;;;;;;26.15;21.80;;;9.50;79.90;;;7.68;88.99;94182.66;4994614;28;20065;-65
2022/03/31 00:57:30;;;;;;;29.42;21.65;;;9.40;79.90;;;7.69;88.69;94179.03;4993624;28;20030;-66
2022/03/31 00:59:56;;;;;;;30.58;22.88;;;9.30;80.20;;;7.65;88.82;94180.50;5002273;28;20580;-66
2022/03/31 01:02:22;;;;;;;29.27;22.42;;;9.30;80.30;;;7.65;88.90;94180.50;4987018;28;20118;-66
2022/03/31 01:04:48;;;;;;;29.92;22.35;;;9.30;80.60;;;7.65;89.15;94176.06;4995856;28;20085;-65
2022/03/31 01:07:13;;;;;;;29.48;22.83;;;9.30;80.70;;;7.63;89.07;94170.25;4986283;28;20054;-67
2022/03/31 01:09:39;;;;;;;29.30;23.73;;;9.30;80.50;;;7.64;89.13;94171.03;4989746;28;20042;-66
2022/03/31 01:12:06;;;;;;;30.55;23.48;;;9.30;80.40;;;7.62;89.07;94166.03;4989955;28;20034;-67
2022/03/31 01:14:32;;;;;;;31.98;24.70;;;9.30;80.30;;;7.63;89.42;94162.41;4986733;28;20026;-65
2022/03/31 01:16:57;;;;;;;31.15;26.27;;;9.40;80.40;;;7.63;89.57;94156.38;4984852;28;20035;-65
2022/03/31 01:19:23;;;;;;;35.95;26.48;;;9.30;80.30;;;7.64;89.28;94150.09;4989999;28;20041;-66
2022/03/31 01:21:49;;;;;;;37.55;29.17;;;9.30;80.30;;;7.63;89.44;94146.69;4993705;28;20049;-66
2022/03/31 01:24:15;;;;;;;37.28;30.27;;;9.30;80.40;;;7.66;89.26;94150.69;4974066;28;20113;-67
2022/03/31 01:26:42;;;;;;;37.88;31.38;;;9.40;80.40;;;7.66;89.80;94146.25;5007108;28;20122;-67
2022/03/31 01:29:10;;;;;;;38.97;32.47;;;9.40;80.30;;;7.67;90.15;94141.81;4964639;28;20038;-66
2022/03/31 01:31:40;;;;;;;38.97;32.33;;;9.40;80.30;;;7.68;89.31;94138.19;4996720;28;20379;-67
2022/03/31 01:34:07;;;;;;;41.45;31.75;;;9.40;80.20;;;7.68;89.88;94127.72;4997732;28;20031;-66
2022/03/31 01:36:34;;;;;;;40.20;30.13;;;9.40;80.10;;;7.67;89.49;94123.50;4999633;28;20533;-67
2022/03/31 01:39:00;;;;;;;42.45;31.58;;;9.40;80.40;;;7.68;89.87;94127.72;4999857;28;20035;-66
2022/03/31 01:41:26;;;;;;;41.80;31.13;;;9.40;80.20;;;7.68;89.43;94127.72;4979304;28;20092;-66
2022/03/31 01:43:51;;;;;;;41.53;29.90;;;9.30;80.30;;;7.65;89.15;94115.06;5016671;28;20448;-66
2022/03/31 01:46:17;;;;;;;38.30;29.85;;;9.40;79.90;;;7.67;89.06;94120.88;5020897;28;20424;-66
2022/03/31 01:48:43;;;;;;;37.90;26.55;;;9.40;80.00;;;7.65;89.14;94121.09;4999320;28;20450;-66
2022/03/31 01:51:09;;;;;;;39.60;26.88;;;9.30;80.00;;;7.64;88.38;94121.34;4921892;28;20877;-67
2022/03/31 01:53:37;;;;;;;34.20;27.52;;;9.30;79.90;;;7.62;89.03;94121.56;4880924;28;20808;-66
2022/03/31 01:56:03;;;;;;;35.30;25.98;;;9.30;79.80;;;7.61;88.95;94119.16;4865367;28;20419;-69
2022/03/31 02:00:59;;;;;;;34.10;25.42;;;9.30;80.10;;;7.58;89.10;94116.97;4904873;28;20730;-62
2022/03/31 02:03:25;;;;;;;35.17;23.92;;;9.30;80.00;;;7.56;89.11;94119.81;4988328;22;20572;-66
2022/03/31 02:05:51;;;;;;;34.65;26.95;;;9.20;80.00;;;7.54;89.30;94115.81;4905526;28;20351;-66
2022/03/31 02:08:18;;;;;;;40.00;28.83;;;9.30;80.00;;;7.54;89.18;94110.59;4899580;28;20553;-66
2022/03/31 02:10:44;;;;;;;45.63;33.47;;;9.30;80.10;;;7.49;89.86;94102.59;4920560;28;20339;-64
2022/03/31 02:13:10;;;;;;;40.13;27.23;;;9.20;80.10;;;7.52;89.14;94108.19;4969810;28;20303;-65
2022/03/31 02:15:36;;;;;;;42.83;30.67;;;9.30;80.00;;;7.52;89.46;94094.31;4935620;28;20100;-65
2022/03/31 02:18:03;;;;;;;39.70;31.55;;;9.20;80.00;;;7.52;89.35;94092.50;4935310;28;20128;-64
2022/03/31 02:20:30;;;;;;;40.10;28.70;;;9.30;80.00;;;7.52;89.31;94096.94;4917186;28;20344;-65
2022/03/31 02:23:00;;;;;;;53.58;39.63;;;9.30;80.00;;;7.52;89.49;94086.47;4899485;28;20518;-66
2022/03/31 02:25:27;;;;;;;45.45;33.05;;;9.30;80.00;;;7.50;89.66;94088.50;4885558;28;20450;-66
2022/03/31 02:27:53;;;;;;;38.88;29.17;;;9.20;80.20;;;7.51;89.42;94082.25;4913433;28;20738;-66
2022/03/31 02:30:20;;;;;;;37.05;27.45;;;9.20;80.10;;;7.50;89.36;94083.28;4885654;28;20509;-66
2022/03/31 02:32:47;;;;;;;82.50;59.00;;;9.20;80.20;;;7.50;89.53;94083.28;4870486;28;20486;-66
2022/03/31 02:35:13;;;;;;;60.85;43.38;;;9.20;80.20;;;7.50;89.62;94075.44;4894338;28;20585;-65
2022/03/31 02:37:39;;;;;;;41.78;30.65;;;9.30;80.20;;;7.51;89.56;94067.38;4887514;28;20266;-65
2022/03/31 02:40:06;;;;;;;37.33;27.90;;;9.30;80.00;;;7.51;89.49;94064.75;4874048;28;20473;-65
2022/03/31 02:42:35;;;;;;;34.88;27.30;;;9.30;79.80;;;7.51;89.36;94059.53;4902541;28;20363;-64
2022/03/31 02:45:05;;;;;;;32.03;25.73;;;9.20;79.90;;;7.51;89.53;94063.94;4869631;28;20591;-65
2022/03/31 02:47:32;;;;;;;33.10;24.45;;;9.20;79.80;;;7.48;89.21;94059.16;4885789;28;20353;-65
2022/03/31 02:49:58;;;;;;;32.08;25.65;;;9.20;79.70;;;7.46;89.32;94050.72;4883017;28;20548;-64
2022/03/31 02:52:24;;;;;;;34.10;24.50;;;9.10;79.80;;;7.43;88.79;94051.16;4877090;28;20781;-65
2022/03/31 02:57:35;;;;;;;32.50;25.00;;;9.10;79.90;;;7.32;88.46;94031.78;4919298;28;20408;-64
2022/03/31 03:00:02;;;;;;;33.97;23.83;;;9.00;80.00;;;7.27;88.61;94042.91;4874535;28;20396;-65
2022/03/31 03:02:28;;;;;;;37.60;27.92;;;8.90;80.00;;;7.22;88.73;94032.28;4869554;28;20337;-65
2022/03/31 03:04:55;;;;;;;34.25;24.88;;;8.80;80.30;;;7.17;88.75;94026.91;4897689;28;20433;-64
2022/03/31 03:07:21;;;;;;;30.90;23.55;;;8.80;80.30;;;7.07;89.20;94021.41;4899664;28;20886;-65
2022/03/31 03:09:47;;;;;;;39.03;27.30;;;8.70;80.40;;;7.07;89.57;94024.03;4867069;28;20565;-64
2022/03/31 03:12:13;;;;;;;47.95;35.15;;;8.70;80.60;;;7.05;89.12;94033.91;4906552;28;20366;-65
2022/03/31 03:14:40;;;;;;;64.95;49.53;;;8.80;80.60;;;7.03;89.62;94041.97;4854397;28;20573;-64
2022/03/31 03:17:06;;;;;;;34.78;27.35;;;8.70;80.70;;;7.03;89.93;94046.38;4870897;28;20385;-64
2022/03/31 03:19:32;;;;;;;32.65;24.42;;;8.70;80.80;;;7.03;89.86;94046.38;4881231;28;20687;-65
2022/03/31 03:21:59;;;;;;;31.52;22.13;;;8.70;80.90;;;7.03;89.65;94049.00;4887664;28;20409;-65
2022/03/31 03:24:25;;;;;;;31.58;22.90;;;8.70;80.90;;;7.01;89.69;94043.97;4873154;28;20537;-65
2022/03/31 03:26:51;;;;;;;29.13;22.42;;;8.70;80.70;;;6.99;89.84;94037.34;4878020;28;20688;-65
2022/03/31 03:29:17;;;;;;;28.73;21.42;;;8.70;81.00;;;6.98;90.14;94038.38;4894052;28;20582;-66
2022/03/31 03:31:43;;;;;;;30.15;22.25;;;8.70;81.00;;;6.98;89.75;94026.09;4870514;28;20284;-65
2022/03/31 03:34:10;;;;;;;28.92;20.65;;;8.70;81.20;;;6.98;90.42;94022.69;4872206;28;20326;-65
2022/03/31 03:36:36;;;;;;;30.00;21.85;;;8.70;81.10;;;6.97;90.27;94024.50;4870517;28;20371;-65
2022/03/31 03:39:03;;;;;;;28.15;21.33;;;8.70;81.10;;;6.97;90.39;94036.78;4891954;28;20481;-66
2022/03/31 03:41:29;;;;;;;43.53;31.45;;;8.70;81.20;;;6.98;90.72;94033.16;4894635;28;20218;-66
2022/03/31 03:43:55;;;;;;;46.97;34.90;;;8.70;81.20;;;6.99;90.33;94029.50;4906275;28;20358;-66
2022/03/31 03:46:23;;;;;;;41.55;29.05;;;8.60;81.40;;;7.00;90.45;94031.09;4887620;28;20375;-66
2022/03/31 03:48:49;;;;;;;30.48;23.05;;;8.70;81.40;;;7.03;90.63;94028.09;4902682;28;20544;-66
2022/03/31 03:51:15;;;;;;;31.15;22.42;;;8.80;81.30;;;7.03;90.78;94020.25;4901456;28;20415;-65
2022/03/31 03:53:41;;;;;;;30.63;21.38;;;8.80;81.00;;;7.06;90.41;94020.59;4933543;28;20805;-65
2022/03/31 03:56:06;;;;;;;30.27;22.80;;;8.90;80.90;;;7.03;90.70;94020.25;4921605;28;20312;-68
2022/03/31 03:58:32;;;;;;;30.83;22.42;;;8.80;80.80;;;7.05;90.69;94018.22;4872156;28;20340;-66
2022/03/31 04:00:58;;;;;;;32.30;22.80;;;8.80;80.90;;;7.04;90.80;94016.63;4899612;28;20303;-67
2022/03/31 04:03:24;;;;;;;33.38;24.27;;;8.80;81.10;;;7.05;90.53;94008.56;4939986;28;20356;-67
2022/03/31 04:05:50;;;;;;;29.92;22.45;;;8.80;81.10;;;7.07;90.81;94010.94;4926972;28;20445;-65
2022/03/31 04:08:16;;;;;;;31.83;24.15;;;8.70;81.00;;;7.05;90.84;94002.53;4938709;28;20414;-67
2022/03/31 04:10:42;;;;;;;36.78;25.90;;;8.80;81.10;;;7.08;90.91;94004.72;4925581;28;20317;-65
2022/03/31 04:13:08;;;;;;;46.45;29.15;;;8.80;80.90;;;7.07;90.08;94006.53;4922207;28;20940;-64
2022/03/31 04:15:34;;;;;;;47.47;31.85;;;8.80;80.90;;;7.08;90.63;94009.94;4915608;28;20299;-65
2022/03/31 04:18:00;;;;;;;45.85;29.90;;;8.80;80.80;;;7.08;90.69;94004.72;4869941;28;20578;-64
2022/03/31 04:20:26;;;;;;;44.60;30.40;;;8.80;80.90;;;7.07;90.60;94011.75;4856332;28;20691;-65
2022/03/31 04:22:52;;;;;;;49.20;33.17;;;8.80;81.10;;;7.07;90.92;94003.09;4875480;28;20401;-65
2022/03/31 04:25:19;;;;;;;47.20;31.98;;;8.80;80.90;;;7.06;90.85;94002.31;4881950;28;20466;-65
2022/03/31 04:27:45;;;;;;;49.53;33.50;;;8.80;81.00;;;7.04;91.27;94006.97;4897820;28;20455;-64
2022/03/31 04:30:11;;;;;;;48.20;32.45;;;8.70;81.20;;;7.06;90.77;94011.97;4906061;28;20327;-65
2022/03/31 04:32:38;;;;;;;56.35;35.22;;;8.80;81.20;;;7.02;91.33;94014.22;4873346;28;20521;-65
2022/03/31 04:35:05;;;;;;;50.40;34.40;;;8.70;81.00;;;7.02;90.87;94018.66;4888638;28;20734;-64
2022/03/31 04:37:33;;;;;;;49.72;34.50;;;8.70;81.00;;;7.04;91.26;94019.22;4873842;28;20509;-65
2022/03/31 04:39:59;;;;;;;59.25;39.97;;;8.90;81.00;;;7.07;91.03;94013.56;4869398;28;20481;-65
2022/03/31 04:42:25;;;;;;;53.85;36.03;;;8.90;81.00;;;7.07;91.26;94010.94;4874837;28;20188;-64
2022/03/31 04:44:51;;;;;;;55.67;37.15;;;8.80;80.90;;;7.10;91.30;94007.09;4885805;28;20336;-65
2022/03/31 04:47:17;;;;;;;54.20;33.80;;;8.90;80.80;;;7.10;91.08;94000.06;4866021;28;20324;-65
2022/03/31 04:49:44;;;;;;;50.35;33.60;;;9.00;80.70;;;7.11;90.90;94006.88;4877548;28;20364;-65
2022/03/31 04:52:11;;;;;;;55.28;35.80;;;8.90;80.60;;;7.11;91.19;94001.66;4884038;28;20347;-69
2022/03/31 04:54:43;;;;;;;58.47;39.72;;;8.90;80.50;;;7.10;90.82;94009.72;4864192;28;20352;-70
2022/03/31 04:57:13;;;;;;;59.70;38.35;;;8.80;80.60;;;7.11;91.37;94012.09;4869568;28;20352;-70
2022/03/31 04:59:39;;;;;;;58.58;37.42;;;8.80;80.70;;;7.13;90.74;94012.69;4868076;28;20609;-70
2022/03/31 05:02:06;;;;;;;58.10;38.53;;;8.90;80.70;;;7.13;90.51;94015.28;4858138;28;20467;-65
2022/03/31 05:04:32;;;;;;;60.92;40.17;;;8.90;80.40;;;7.10;90.64;94014.94;4884267;28;20485;-65
2022/03/31 05:06:59;;;;;;;62.22;39.55;;;8.90;80.40;;;7.10;90.54;94009.72;4888300;28;20325;-66
2022/03/31 05:09:25;;;;;;;56.42;38.75;;;8.90;80.50;;;7.10;90.93;94007.09;4894160;28;20193;-64
2022/03/31 05:11:51;;;;;;;64.30;39.38;;;8.90;80.50;;;7.10;90.48;94007.09;4897545;28;20350;-65
2022/03/31 05:14:17;;;;;;;56.13;38.58;;;8.90;80.50;;;7.10;91.14;94009.72;4863789;28;20354;-69
2022/03/31 05:16:43;;;;;;;62.97;40.10;;;8.80;80.80;;;7.11;91.10;94009.50;4870028;28;20344;-61
2022/03/31 05:19:09;;;;;;;63.97;40.05;;;8.90;80.60;;;7.13;91.51;93999.63;4886658;28;20477;-65
2022/03/31 05:21:35;;;;;;;58.10;37.97;;;9.00;80.80;;;7.15;91.30;94000.19;4893540;28;20352;-61
2022/03/31 05:24:01;;;;;;;59.92;39.50;;;9.00;80.50;;;7.16;90.98;94007.00;4849497;28;20208;-66
2022/03/31 05:26:27;;;;;;;56.72;36.13;;;9.00;80.40;;;7.17;90.92;94011.22;4838014;28;20348;-66
2022/03/31 05:28:58;;;;;;;51.58;35.30;;;9.10;80.40;;;7.17;90.91;94016.44;4862794;28;20352;-65
2022/03/31 05:31:24;;;;;;;;;;;9.10;80.40;;;7.18;92.23;94009.41;4863279;28;20419;-66
2022/03/31 05:33:50;;;;;;;49.20;33.25;;;9.10;80.40;;;7.16;90.51;94009.63;4862439;28;20482;-65
2022/03/31 05:36:16;;;;;;;51.97;33.17;;;9.00;80.30;;;7.19;90.72;94008.38;4863398;28;20741;-66
2022/03/31 05:38:43;;;;;;;52.08;33.60;;;9.10;80.40;;;7.19;91.35;94008.38;4882770;28;20132;-66
2022/03/31 05:41:09;;;;;;;51.80;34.00;;;9.10;80.50;;;7.20;91.26;93999.53;4865798;28;20403;-64
2022/03/31 05:43:35;;;;;;;50.63;34.90;;;9.10;80.30;;;7.21;91.05;93995.91;4880851;28;20365;-62
2022/03/31 05:46:01;;;;;;;51.80;34.45;;;9.10;80.30;;;7.22;90.63;94003.53;4880590;28;20511;-65
2022/03/31 05:48:28;;;;;;;48.22;34.42;;;9.10;80.40;;;7.22;91.35;93989.66;4880978;28;20541;-63
2022/03/31 05:50:54;;;;;;;49.10;33.55;;;9.10;80.30;;;7.24;91.13;93995.44;4884160;28;20497;-64
2022/03/31 05:53:20;;;;;;;54.22;34.75;;;9.10;80.50;;;7.25;91.00;93989.22;4868662;28;20545;-60
2022/03/31 05:55:46;;;;;;;47.92;34.60;;;9.10;80.60;;;7.27;91.44;93989.81;4880732;28;20356;-66
2022/03/31 05:58:13;;;;;;;48.80;31.98;;;9.20;80.40;;;7.29;91.72;93993.00;4883920;28;20223;-66
2022/03/31 06:00:39;;;;;;;48.10;34.47;;;9.20;80.20;;;7.32;91.13;93993.34;4879440;28;20467;-65
2022/03/31 06:03:06;;;;;;;51.15;34.88;;;9.20;80.00;;;7.34;90.93;93990.50;4854360;28;20417;-64
2022/03/31 06:05:32;;;;;;;46.10;32.30;;;9.30;80.00;;;7.37;91.02;93998.72;4858993;28;20502;-65
2022/03/31 06:07:59;;;;;;;45.78;31.92;;;9.30;79.80;;;7.40;90.90;93996.69;4906939;28;20269;-65
2022/03/31 06:10:25;;;;;;;48.28;32.53;;;9.30;79.60;;;7.41;90.61;93998.28;4861913;28;20345;-65
2022/03/31 06:12:51;;;;;;;50.58;34.33;;;9.40;79.50;;;7.42;91.13;93995.44;4871043;28;20296;-65
2022/03/31 06:15:18;;;;;;;52.00;34.78;;;9.30;79.50;;;7.44;90.62;93989.97;4862094;28;20629;-64
2022/03/31 06:17:45;;;;;;;50.00;33.97;;;9.40;79.50;;;7.47;90.53;93989.53;4906234;28;20731;-64
2022/03/31 06:20:12;;;;;;;52.38;36.17;;;9.50;79.60;;;7.48;90.58;93997.19;4885465;28;20754;-64
2022/03/31 06:22:38;;;;;;;51.67;35.30;;;9.40;79.50;;;7.50;90.46;93995.16;4902302;28;20499;-66
2022/03/31 06:25:07;;;;;;;54.22;34.30;;;9.50;79.50;;;7.50;90.30;93999.56;4929951;28;20452;-66
2022/03/31 06:27:33;;;;;;;53.42;34.70;;;9.40;79.40;;;7.50;90.55;93994.34;4871906;28;20446;-67
2022/03/31 06:29:59;;;;;;;53.47;33.40;;;9.50;79.50;;;7.50;90.49;93994.34;4898944;28;20373;-65
2022/03/31 06:32:25;;;;;;;56.35;37.00;;;9.50;79.40;;;7.48;90.78;93991.16;4875269;28;20324;-63
2022/03/31 06:34:51;;;;;;;57.83;38.38;;;9.40;79.80;;;7.47;90.73;93990.38;4884459;28;20415;-66
2022/03/31 06:37:19;;;;;;;64.63;37.20;;;9.30;79.70;;;7.47;90.55;93989.53;4888819;28;20745;-64
2022/03/31 06:39:45;;;;;;;63.25;38.15;;;9.40;79.70;;;7.49;90.40;93987.53;4909405;28;20441;-64
2022/03/31 06:42:11;;;;;;;62.25;39.55;;;9.40;79.80;;;7.49;90.73;93988.31;4887331;28;20378;-64
2022/03/31 06:44:38;;;;;;;60.17;39.00;;;9.40;79.80;;;7.50;90.83;93984.69;4863003;28;20429;-65
2022/03/31 06:47:05;;;;;;;61.33;39.75;;;9.40;79.90;;;7.53;91.14;93983.44;4888481;28;20927;-65
2022/03/31 06:49:31;;;;;;;56.15;37.20;;;9.50;79.70;;;7.55;90.79;93986.63;4881926;28;20215;-64
2022/03/31 06:51:58;;;;;;;56.80;37.30;;;9.50;79.60;;;7.57;90.95;93982.75;4855138;28;20396;-64
2022/03/31 06:54:24;;;;;;;57.95;35.67;;;9.50;79.70;;;7.61;90.88;93981.31;4889552;28;20440;-65
2022/03/31 06:56:51;;;;;;;53.28;37.30;;;9.60;79.40;;;7.65;90.94;93986.88;4876804;28;20216;-64
2022/03/31 06:59:20;;;;;;;52.85;35.22;;;9.60;79.20;;;7.68;90.43;93987.22;4877157;28;20318;-67
2022/03/31 07:01:48;;;;;;;56.45;36.40;;;9.60;78.90;;;7.70;89.75;93991.47;4887737;28;20344;-65
2022/03/31 07:04:15;;;;;;;56.22;38.85;;;9.60;78.90;;;7.74;90.50;93990.78;4870931;28;20374;-65
2022/03/31 07:06:41;;;;;;;60.75;38.35;;;9.70;79.20;;;7.75;90.24;93992.38;4900123;28;20540;-66
2022/03/31 07:09:07;;;;;;;57.67;37.95;;;9.60;79.00;;;7.77;89.98;93984.31;4893528;28;20340;-65
2022/03/31 07:11:34;;;;;;;59.13;39.80;;;9.70;79.20;;;7.78;90.22;93978.84;4855994;28;20248;-64
2022/03/31 07:14:04;;;;;;;60.75;42.50;;;9.70;79.00;;;7.81;90.32;93985.47;4893344;28;20561;-65
2022/03/31 07:16:31;;;;;;;64.32;39.80;;;9.70;78.90;;;7.83;89.94;93978.97;4890562;28;20507;-65
2022/03/31 07:18:58;;;;;;;56.60;37.22;;;9.70;78.90;;;7.84;90.04;93982.38;4896387;28;20606;-65
2022/03/31 07:21:26;;;;;;;50.92;37.83;;;9.80;78.90;;;7.85;89.65;93976.13;4905284;28;20664;-66
2022/03/31 07:23:52;;;;;;;53.00;34.60;;;9.80;78.50;;;7.88;90.02;93966.00;4892582;28;20342;-65
2022/03/31 07:26:19;;;;;;;47.67;35.20;;;9.80;78.30;;;7.92;89.90;93967.19;4884871;28;20381;-66
2022/03/31 07:28:45;;;;;;;44.38;34.85;;;9.90;78.40;;;7.97;88.80;93969.91;4901818;28;20354;-66
2022/03/31 07:31:11;;;;;;;45.28;31.52;;;10.00;77.90;;;8.01;89.57;93965.03;4868694;28;20452;-65
2022/03/31 07:33:37;;;;;;;48.42;35.47;;;10.00;77.60;;;8.06;89.07;93969.59;4885337;28;20347;-67
2022/03/31 07:36:04;;;;;;;49.97;34.10;;;10.10;77.40;;;8.09;88.75;93962.06;4869035;28;20703;-67
2022/03/31 07:38:30;;;;;;;44.45;33.85;;;10.10;77.70;;;8.13;88.99;93959.78;4881154;28;20322;-65
2022/03/31 07:40:56;;;;;;;43.85;33.58;;;10.20;77.20;;;8.19;88.75;93956.28;4865827;28;20583;-66
2022/03/31 07:43:22;;;;;;;43.45;33.95;;;10.30;76.80;;;8.27;88.96;93963.81;4877897;28;20334;-66
2022/03/31 07:45:48;;;;;;;49.30;36.55;;;10.50;76.70;;;8.35;89.19;93960.88;4910639;28;20523;-64
2022/03/31 07:48:16;;;;;;;51.55;36.83;;;10.60;76.70;;;8.45;88.60;93960.31;4901766;28;20359;-65
2022/03/31 07:50:42;;;;;;;44.80;35.63;;;10.70;76.10;;;8.54;88.99;93964.19;4854597;28;20411;-64
2022/03/31 07:53:10;;;;;;;49.65;36.78;;;10.80;75.80;;;8.64;87.79;93961.00;4892759;28;20352;-64
2022/03/31 07:55:36;;;;;;;47.42;37.63;;;10.90;75.30;;;8.72;88.52;93966.69;4861788;28;20357;-64
2022/03/31 07:58:03;;;;;;;48.72;35.42;;;10.90;75.20;;;8.77;87.29;93960.75;4881456;28;20363;-65
2022/03/31 08:00:29;;;;;;;42.92;33.03;;;10.90;75.40;;;8.82;87.68;93961.66;4883708;28;20581;-62
2022/03/31 08:02:57;;;;;;;43.78;32.72;;;11.00;74.90;;;8.88;86.32;93959.94;4898303;28;20355;-65
2022/03/31 08:05:25;;;;;;;40.38;30.08;;;11.00;75.00;;;8.94;87.33;93961.63;4851370;28;20486;-65
2022/03/31 08:07:51;;;;;;;37.33;28.38;;;11.10;74.80;;;9.00;86.09;93958.09;4856447;28;20367;-66
2022/03/31 08:10:17;;;;;;;37.10;28.77;;;11.10;74.20;;;9.03;86.00;93947.13;4886260;28;20446;-65
2022/03/31 08:12:45;;;;;;;33.67;26.77;;;11.20;73.80;;;9.09;85.04;93951.47;4853410;28;20414;-62
2022/03/31 08:15:12;;;;;;;34.90;26.92;;;11.30;73.80;;;9.14;85.06;93948.94;4890074;28;20351;-65
2022/03/31 08:17:38;;;;;;;31.52;25.20;;;11.40;73.60;;;9.19;85.10;93951.66;4866930;28;20363;-67
2022/03/31 08:20:09;;;;;;;35.88;27.10;;;11.40;73.50;;;9.25;84.27;93943.88;4869673;28;20925;-65
2022/03/31 08:22:36;;;;;;;35.47;27.63;;;11.40;73.00;;;9.28;85.49;93943.41;4882220;28;20435;-65
2022/03/31 08:25:03;;;;;;;37.03;27.60;;;11.40;73.50;;;9.31;85.04;93943.78;4878471;28;20363;-65
2022/03/31 08:27:32;;;;;;;34.03;27.27;;;11.40;73.20;;;9.32;84.80;93945.34;4902614;28;20319;-65
2022/03/31 08:29:58;;;;;;;35.33;25.85;;;11.40;72.90;;;9.32;83.95;93936.69;4880720;28;20262;-65
2022/03/31 08:32:24;;;;;;;32.60;25.42;;;11.40;72.10;;;9.34;82.89;93948.53;4904778;28;20448;-65
2022/03/31 08:34:50;;;;;;;33.17;26.13;;;11.50;72.50;;;9.39;84.22;93942.59;4863863;28;20497;-64
2022/03/31 08:37:16;;;;;;;36.28;27.20;;;11.50;72.70;;;9.42;83.56;93942.13;4895684;28;20462;-64
2022/03/31 08:39:42;;;;;;;38.70;28.98;;;11.60;72.20;;;9.42;82.40;93939.50;4891352;28;20475;-64
2022/03/31 08:42:09;;;;;;;36.58;28.42;;;11.60;72.40;;;9.43;82.54;93936.63;4893109;28;20319;-64
2022/03/31 08:44:36;;;;;;;34.13;26.45;;;11.60;72.60;;;9.46;82.74;93943.25;4855084;28;20488;-65
2022/03/31 08:47:02;;;;;;;35.58;27.38;;;11.60;71.70;;;9.52;82.95;93943.13;4865536;28;20296;-62
2022/03/31 08:49:31;;;;;;;35.83;26.25;;;11.80;71.70;;;9.56;81.76;93938.19;4895061;28;20210;-65
2022/03/31 08:51:57;;;;;;;39.53;27.75;;;11.80;71.00;;;9.64;81.50;93935.19;4905238;28;20441;-64
2022/03/31 08:54:23;;;;;;;36.47;26.42;;;11.90;70.60;;;9.69;81.68;93935.25;4849105;28;20650;-64
2022/03/31 08:56:49;;;;;;;38.25;27.65;;;12.00;70.80;;;9.73;81.16;93940.81;4876516;28;20329;-64
2022/03/31 08:59:16;;;;;;;33.80;27.05;;;11.90;70.00;;;9.77;80.86;93939.34;4889291;28;20464;-66
2022/03/31 09:01:42;;;;;;;38.08;27.65;;;11.90;70.10;;;9.80;81.19;93936.25;4879355;28;20521;-66
2022/03/31 09:04:21;;;;;;;38.45;27.70;;;11.90;70.20;;;9.85;80.91;93936.31;4900757;28;20800;-65
2022/03/31 09:07:10;;;;;;;34.53;26.60;;;12.10;70.90;;;9.91;79.86;93937.19;4868783;28;20688;-65
2022/03/31 09:09:47;;;;;;;35.70;26.35;;;12.10;70.30;;;9.93;79.25;93937.75;4887500;28;20254;-66
2022/03/31 09:12:13;;;;;;;34.95;25.67;;;12.10;69.30;;;9.95;80.98;93938.31;4889998;28;20510;-65
2022/03/31 09:14:39;;;;;;;40.63;28.85;;;12.10;69.60;;;9.97;79.53;93941.53;4869291;28;20352;-66
2022/03/31 09:17:13;;;;;;;35.72;24.60;;;12.10;69.30;;;10.00;79.37;93933.16;4867932;28;20215;-65
2022/03/31 09:19:39;;;;;;;30.77;23.85;;;12.10;68.40;;;10.01;78.47;93934.75;4888118;28;20317;-64
2022/03/31 09:22:05;;;;;;;30.60;23.73;;;12.10;68.20;;;10.00;79.09;93935.78;4887020;28;20487;-64
2022/03/31 09:24:31;;;;;;;31.33;24.10;;;12.00;68.50;;;9.95;78.47;93930.44;4909843;28;20354;-64
2022/03/31 09:26:59;;;;;;;32.75;23.83;;;11.90;68.60;;;9.93;79.07;93935.91;4853913;28;20353;-65
2022/03/31 09:29:28;;;;;;;30.10;23.33;;;11.80;69.30;;;9.93;78.60;93929.88;4867365;28;20379;-66
2022/03/31 09:32:15;;;;;;;31.90;24.38;;;11.90;69.40;;;9.92;77.46;93936.16;4879046;28;20189;-62
2022/03/31 09:34:46;;;;;;;31.42;24.50;;;11.90;69.40;;;9.89;78.94;93939.28;4870785;28;20364;-63
2022/03/31 09:37:12;;;;;;;33.90;24.63;;;11.80;69.50;;;9.83;77.86;93936.56;4883104;28;20471;-64
2022/03/31 09:39:39;;;;;;;30.23;23.48;;;11.80;69.70;;;9.85;78.70;93935.53;4898498;28;20291;-63
2022/03/31 09:42:13;;;;;;;31.15;23.73;;;11.80;69.90;;;9.85;78.97;93938.16;4853261;28;20672;-64
2022/03/31 09:44:41;;;;;;;32.40;24.40;;;11.70;70.00;;;9.79;78.30;93924.94;4881671;28;20319;-65
2022/03/31 09:47:08;;;;;;;29.67;23.50;;;11.70;70.20;;;9.78;77.96;93938.31;4885352;28;20422;-65
2022/03/31 09:49:34;;;;;;;29.33;22.75;;;11.70;70.50;;;9.76;78.32;93927.25;4867695;28;20446;-63
2022/03/31 09:52:04;;;;;;;30.13;22.75;;;11.70;71.00;;;9.76;79.60;93935.94;4875577;28;20679;-65
2022/03/31 09:54:32;;;;;;;28.33;21.80;;;11.70;71.20;;;9.75;78.77;93934.34;4879317;28;20573;-63
2022/03/31 09:57:02;;;;;;;26.92;21.58;;;11.70;70.40;;;9.75;80.21;93929.09;4899092;28;20339;-67
2022/03/31 09:59:33;;;;;;;29.63;21.80;;;11.80;70.90;;;9.78;80.07;93928.59;4863827;28;20562;-66
2022/03/31 10:02:00;;;;;;;31.00;22.95;;;11.80;70.80;;;9.81;79.23;93928.13;4859166;28;20573;-65
2022/03/31 10:04:27;;;;;;;31.38;23.83;;;11.90;70.40;;;9.86;79.10;93934.50;4891256;28;20480;-66
2022/03/31 10:06:53;;;;;;;28.40;22.70;;;12.00;70.20;;;9.91;79.24;93934.56;4878944;28;20373;-65
2022/03/31 10:09:19;;;;;;;28.73;21.80;;;12.10;69.40;;;9.94;78.58;93931.47;4888676;28;20224;-65
2022/03/31 10:11:49;;;;;;;29.90;22.35;;;12.10;69.00;;;9.98;77.74;93929.97;4893997;28;20379;-70
2022/03/31 10:14:25;;;;;;;28.38;21.15;;;12.20;68.70;;;10.05;78.47;93933.25;4843176;28;20361;-67
2022/03/31 10:17:04;;;;;;;28.95;22.40;;;12.20;68.40;;;10.10;78.43;93930.69;4892758;28;20398;-66
2022/03/31 10:19:36;;;;;;;29.38;21.85;;;12.30;68.50;;;10.14;77.95;93916.84;4892949;28;20327;-66
2022/03/31 10:22:08;;;;;;;29.80;22.50;;;12.40;68.10;;;10.21;77.87;93921.97;4892201;28;20406;-66